Terminal Aerodrome Forecast
Issued by NWS

Home | Current Version | Previous Version | Graphics & Text | Print | Product List | Glossary On
Versions: 1 2 3 4 5 6 7 8 9 10 11 12 13 14 15 16 17
308
FTUS43 KIWX 040521
TAFSBN
TAF
KSBN 040521Z 0406/0506 27010KT 4SM -SHSN BR SCT006 OVC010
      TEMPO 0406/0409 2SM -FZDZSN OVC008
     FM041000 27010KT P6SM -SHSN OVC015
     FM041500 27010KT P6SM SCT015 BKN035
     FM041800 27010KT P6SM SCT035
     FM050200 22005KT P6SM BKN040=

USA.gov is the U.S. government's official web portal to all federal, state and local government web resources and services.